sensor_id;sensor_type;location;lat;lon;timestamp;temperature;humidity
60313;DHT22;46158;52.850;6.970;2023-02-28T00:01:17;12.80;72.60
60313;DHT22;46158;52.850;6.970;2023-02-28T00:03:42;12.70;72.50
60313;DHT22;46158;52.850;6.970;2023-02-28T00:06:08;12.70;72.50
60313;DHT22;46158;52.850;6.970;2023-02-28T00:08:34;12.70;72.50
60313;DHT22;46158;52.850;6.970;2023-02-28T00:11:10;12.70;72.50
60313;DHT22;46158;52.850;6.970;2023-02-28T00:13:37;12.60;72.40
60313;DHT22;46158;52.850;6.970;2023-02-28T00:16:13;12.60;72.40
60313;DHT22;46158;52.850;6.970;2023-02-28T00:18:39;12.70;72.40
60313;DHT22;46158;52.850;6.970;2023-02-28T00:21:05;12.60;72.30
60313;DHT22;46158;52.850;6.970;2023-02-28T00:23:31;12.60;72.30
60313;DHT22;46158;52.850;6.970;2023-02-28T00:25:57;12.60;72.30
60313;DHT22;46158;52.850;6.970;2023-02-28T00:28:22;12.60;72.30
60313;DHT22;46158;52.850;6.970;2023-02-28T00:30:48;12.60;72.30
60313;DHT22;46158;52.850;6.970;2023-02-28T00:33:14;12.60;72.30
60313;DHT22;46158;52.850;6.970;2023-02-28T00:35:40;12.60;72.30
60313;DHT22;46158;52.850;6.970;2023-02-28T00:38:05;12.50;72.20
60313;DHT22;46158;52.850;6.970;2023-02-28T00:40:31;12.50;72.20
60313;DHT22;46158;52.850;6.970;2023-02-28T00:42:57;12.50;72.20
60313;DHT22;46158;52.850;6.970;2023-02-28T00:45:22;12.50;72.20
60313;DHT22;46158;52.850;6.970;2023-02-28T00:47:48;12.50;72.10
60313;DHT22;46158;52.850;6.970;2023-02-28T00:50:18;12.50;72.10
60313;DHT22;46158;52.850;6.970;2023-02-28T00:52:44;12.50;72.10
60313;DHT22;46158;52.850;6.970;2023-02-28T00:55:09;12.50;72.20
60313;DHT22;46158;52.850;6.970;2023-02-28T00:57:35;12.40;72.10
60313;DHT22;46158;52.850;6.970;2023-02-28T01:00:01;12.40;72.00
60313;DHT22;46158;52.850;6.970;2023-02-28T01:02:26;12.50;72.10
60313;DHT22;46158;52.850;6.970;2023-02-28T01:04:52;12.40;72.00
60313;DHT22;46158;52.850;6.970;2023-02-28T01:07:17;12.40;72.00
60313;DHT22;46158;52.850;6.970;2023-02-28T01:09:43;12.40;72.00
60313;DHT22;46158;52.850;6.970;2023-02-28T01:12:09;12.40;72.00
60313;DHT22;46158;52.850;6.970;2023-02-28T01:14:35;12.40;72.00
60313;DHT22;46158;52.850;6.970;2023-02-28T01:17:00;12.30;71.90
60313;DHT22;46158;52.850;6.970;2023-02-28T01:19:26;12.40;72.00
60313;DHT22;46158;52.850;6.970;2023-02-28T01:21:53;12.30;71.90
60313;DHT22;46158;52.850;6.970;2023-02-28T01:24:18;12.30;71.90
60313;DHT22;46158;52.850;6.970;2023-02-28T01:26:44;12.30;71.90
60313;DHT22;46158;52.850;6.970;2023-02-28T01:29:09;12.30;71.80
60313;DHT22;46158;52.850;6.970;2023-02-28T01:31:35;12.30;71.90
60313;DHT22;46158;52.850;6.970;2023-02-28T01:34:04;12.30;71.90
60313;DHT22;46158;52.850;6.970;2023-02-28T01:36:30;12.30;71.80
60313;DHT22;46158;52.850;6.970;2023-02-28T01:38:55;12.30;71.80
60313;DHT22;46158;52.850;6.970;2023-02-28T01:46:13;12.20;71.80
60313;DHT22;46158;52.850;6.970;2023-02-28T01:48:40;12.20;71.70
60313;DHT22;46158;52.850;6.970;2023-02-28T01:51:08;12.20;71.70
60313;DHT22;46158;52.850;6.970;2023-02-28T01:53:37;12.20;71.70
60313;DHT22;46158;52.850;6.970;2023-02-28T01:56:04;12.20;71.70
60313;DHT22;46158;52.850;6.970;2023-02-28T01:58:31;12.10;71.60
60313;DHT22;46158;52.850;6.970;2023-02-28T02:00:57;12.10;71.60
60313;DHT22;46158;52.850;6.970;2023-02-28T02:03:24;12.10;71.60
60313;DHT22;46158;52.850;6.970;2023-02-28T02:05:49;12.20;71.70
60313;DHT22;46158;52.850;6.970;2023-02-28T02:08:22;12.10;71.60
60313;DHT22;46158;52.850;6.970;2023-02-28T02:10:50;12.10;71.60
60313;DHT22;46158;52.850;6.970;2023-02-28T02:34:00;12.10;71.40
60313;DHT22;46158;52.850;6.970;2023-02-28T02:36:31;12.00;71.40
60313;DHT22;46158;52.850;6.970;2023-02-28T02:39:01;12.00;71.40
60313;DHT22;46158;52.850;6.970;2023-02-28T02:41:50;12.00;71.50
60313;DHT22;46158;52.850;6.970;2023-02-28T02:46:41;12.00;71.40
60313;DHT22;46158;52.850;6.970;2023-02-28T02:49:24;11.90;71.30
60313;DHT22;46158;52.850;6.970;2023-02-28T02:51:51;12.00;71.30
60313;DHT22;46158;52.850;6.970;2023-02-28T02:54:19;11.90;71.20
60313;DHT22;46158;52.850;6.970;2023-02-28T02:56:46;12.00;71.30
60313;DHT22;46158;52.850;6.970;2023-02-28T02:59:14;11.90;71.20
60313;DHT22;46158;52.850;6.970;2023-02-28T03:01:48;11.90;71.20
60313;DHT22;46158;52.850;6.970;2023-02-28T03:04:16;11.90;71.10
60313;DHT22;46158;52.850;6.970;2023-02-28T03:06:42;11.90;71.10
60313;DHT22;46158;52.850;6.970;2023-02-28T03:09:08;11.90;71.10
60313;DHT22;46158;52.850;6.970;2023-02-28T03:11:34;11.90;71.10
60313;DHT22;46158;52.850;6.970;2023-02-28T03:16:48;11.90;71.20
60313;DHT22;46158;52.850;6.970;2023-02-28T03:19:23;11.90;71.20
60313;DHT22;46158;52.850;6.970;2023-02-28T03:26:46;11.90;71.40
60313;DHT22;46158;52.850;6.970;2023-02-28T03:29:17;11.90;71.50
60313;DHT22;46158;52.850;6.970;2023-02-28T03:31:52;11.90;71.50
60313;DHT22;46158;52.850;6.970;2023-02-28T03:34:27;11.90;71.60
60313;DHT22;46158;52.850;6.970;2023-02-28T03:36:55;11.90;71.60
60313;DHT22;46158;52.850;6.970;2023-02-28T03:39:31;11.90;71.60
60313;DHT22;46158;52.850;6.970;2023-02-28T03:42:00;11.90;71.60
60313;DHT22;46158;52.850;6.970;2023-02-28T03:45:14;11.90;71.60
60313;DHT22;46158;52.850;6.970;2023-02-28T03:47:17;11.90;71.70
60313;DHT22;46158;52.850;6.970;2023-02-28T03:52:19;12.00;71.80
60313;DHT22;46158;52.850;6.970;2023-02-28T03:54:48;11.90;71.70
60313;DHT22;46158;52.850;6.970;2023-02-28T03:57:33;12.00;71.80
60313;DHT22;46158;52.850;6.970;2023-02-28T04:00:03;11.90;71.80
60313;DHT22;46158;52.850;6.970;2023-02-28T04:02:31;12.00;71.80
60313;DHT22;46158;52.850;6.970;2023-02-28T04:04:57;12.00;71.80
60313;DHT22;46158;52.850;6.970;2023-02-28T04:07:22;12.00;71.80
60313;DHT22;46158;52.850;6.970;2023-02-28T04:09:48;12.00;71.80
60313;DHT22;46158;52.850;6.970;2023-02-28T04:12:13;12.00;72.50
60313;DHT22;46158;52.850;6.970;2023-02-28T04:14:39;12.00;71.80
60313;DHT22;46158;52.850;6.970;2023-02-28T04:17:05;12.00;71.80
60313;DHT22;46158;52.850;6.970;2023-02-28T04:19:30;12.00;71.80
60313;DHT22;46158;52.850;6.970;2023-02-28T04:21:56;12.00;71.80
60313;DHT22;46158;52.850;6.970;2023-02-28T04:24:22;12.00;71.80
60313;DHT22;46158;52.850;6.970;2023-02-28T04:26:49;12.00;71.80
60313;DHT22;46158;52.850;6.970;2023-02-28T04:29:19;12.00;71.80
60313;DHT22;46158;52.850;6.970;2023-02-28T04:31:45;12.00;71.90
60313;DHT22;46158;52.850;6.970;2023-02-28T04:34:11;12.00;71.80
60313;DHT22;46158;52.850;6.970;2023-02-28T04:36:37;12.00;71.90
60313;DHT22;46158;52.850;6.970;2023-02-28T04:39:02;12.00;71.80
60313;DHT22;46158;52.850;6.970;2023-02-28T04:41:29;12.00;71.90
60313;DHT22;46158;52.850;6.970;2023-02-28T04:43:54;12.00;71.80
60313;DHT22;46158;52.850;6.970;2023-02-28T04:46:21;12.00;71.80
60313;DHT22;46158;52.850;6.970;2023-02-28T04:48:47;12.00;71.80
60313;DHT22;46158;52.850;6.970;2023-02-28T04:51:13;12.00;71.80
60313;DHT22;46158;52.850;6.970;2023-02-28T04:53:40;12.00;71.70
60313;DHT22;46158;52.850;6.970;2023-02-28T04:56:06;12.00;71.80
60313;DHT22;46158;52.850;6.970;2023-02-28T04:58:34;12.00;71.70
60313;DHT22;46158;52.850;6.970;2023-02-28T05:01:04;12.00;71.70
60313;DHT22;46158;52.850;6.970;2023-02-28T05:03:30;12.00;71.80
60313;DHT22;46158;52.850;6.970;2023-02-28T05:05:56;12.00;71.80
60313;DHT22;46158;52.850;6.970;2023-02-28T05:08:21;12.00;71.80
60313;DHT22;46158;52.850;6.970;2023-02-28T05:10:47;11.90;71.80
60313;DHT22;46158;52.850;6.970;2023-02-28T05:13:12;12.00;71.80
60313;DHT22;46158;52.850;6.970;2023-02-28T05:15:38;12.00;71.80
60313;DHT22;46158;52.850;6.970;2023-02-28T05:18:04;12.00;71.80
60313;DHT22;46158;52.850;6.970;2023-02-28T05:20:30;12.00;71.90
60313;DHT22;46158;52.850;6.970;2023-02-28T05:22:56;12.00;72.00
60313;DHT22;46158;52.850;6.970;2023-02-28T05:25:22;12.00;72.00
60313;DHT22;46158;52.850;6.970;2023-02-28T05:27:48;12.00;72.10
60313;DHT22;46158;52.850;6.970;2023-02-28T05:30:13;12.00;72.20
60313;DHT22;46158;52.850;6.970;2023-02-28T05:32:39;12.00;72.30
60313;DHT22;46158;52.850;6.970;2023-02-28T05:35:08;12.00;72.40
60313;DHT22;46158;52.850;6.970;2023-02-28T05:37:34;12.00;72.50
60313;DHT22;46158;52.850;6.970;2023-02-28T05:40:00;12.10;72.60
60313;DHT22;46158;52.850;6.970;2023-02-28T05:42:25;12.10;72.70
60313;DHT22;46158;52.850;6.970;2023-02-28T05:44:51;12.10;72.80
60313;DHT22;46158;52.850;6.970;2023-02-28T05:47:17;12.10;72.80
60313;DHT22;46158;52.850;6.970;2023-02-28T05:49:42;12.10;72.90
60313;DHT22;46158;52.850;6.970;2023-02-28T05:52:08;12.20;73.00
60313;DHT22;46158;52.850;6.970;2023-02-28T05:54:34;12.10;73.00
60313;DHT22;46158;52.850;6.970;2023-02-28T05:56:59;12.20;73.10
60313;DHT22;46158;52.850;6.970;2023-02-28T05:59:25;12.20;73.10
60313;DHT22;46158;52.850;6.970;2023-02-28T06:01:50;12.20;73.10
60313;DHT22;46158;52.850;6.970;2023-02-28T06:04:18;12.20;73.10
60313;DHT22;46158;52.850;6.970;2023-02-28T06:06:45;12.20;73.20
60313;DHT22;46158;52.850;6.970;2023-02-28T06:09:10;12.20;73.20
60313;DHT22;46158;52.850;6.970;2023-02-28T06:11:36;12.30;73.30
60313;DHT22;46158;52.850;6.970;2023-02-28T06:14:02;12.30;73.30
60313;DHT22;46158;52.850;6.970;2023-02-28T06:16:28;12.30;73.40
60313;DHT22;46158;52.850;6.970;2023-02-28T06:18:54;12.30;73.40
60313;DHT22;46158;52.850;6.970;2023-02-28T06:21:22;12.30;73.50
60313;DHT22;46158;52.850;6.970;2023-02-28T06:23:47;12.30;73.50
60313;DHT22;46158;52.850;6.970;2023-02-28T06:26:13;12.40;73.50
60313;DHT22;46158;52.850;6.970;2023-02-28T06:28:39;12.40;73.60
60313;DHT22;46158;52.850;6.970;2023-02-28T06:31:12;12.40;73.60
60313;DHT22;46158;52.850;6.970;2023-02-28T06:33:38;12.40;73.60
60313;DHT22;46158;52.850;6.970;2023-02-28T06:36:04;12.40;73.60
60313;DHT22;46158;52.850;6.970;2023-02-28T06:38:30;12.40;73.60
60313;DHT22;46158;52.850;6.970;2023-02-28T06:40:56;12.50;73.70
60313;DHT22;46158;52.850;6.970;2023-02-28T06:43:22;12.50;73.60
60313;DHT22;46158;52.850;6.970;2023-02-28T06:45:48;12.50;73.60
60313;DHT22;46158;52.850;6.970;2023-02-28T06:48:14;12.50;73.60
60313;DHT22;46158;52.850;6.970;2023-02-28T06:50:39;12.50;73.60
60313;DHT22;46158;52.850;6.970;2023-02-28T06:53:05;12.50;73.70
60313;DHT22;46158;52.850;6.970;2023-02-28T06:55:31;12.50;73.60
60313;DHT22;46158;52.850;6.970;2023-02-28T06:57:57;12.50;73.70
60313;DHT22;46158;52.850;6.970;2023-02-28T07:00:22;12.50;73.70
60313;DHT22;46158;52.850;6.970;2023-02-28T07:02:48;12.50;73.70
60313;DHT22;46158;52.850;6.970;2023-02-28T07:05:13;12.60;73.80
60313;DHT22;46158;52.850;6.970;2023-02-28T07:07:39;12.60;73.80
60313;DHT22;46158;52.850;6.970;2023-02-28T07:10:10;12.60;73.80
60313;DHT22;46158;52.850;6.970;2023-02-28T07:12:36;12.60;73.80
60313;DHT22;46158;52.850;6.970;2023-02-28T07:15:03;12.60;73.80
60313;DHT22;46158;52.850;6.970;2023-02-28T07:17:29;12.70;73.90
60313;DHT22;46158;52.850;6.970;2023-02-28T07:19:55;12.70;73.90
60313;DHT22;46158;52.850;6.970;2023-02-28T07:22:20;12.70;73.90
60313;DHT22;46158;52.850;6.970;2023-02-28T07:24:46;12.70;73.90
60313;DHT22;46158;52.850;6.970;2023-02-28T07:27:12;12.70;73.90
60313;DHT22;46158;52.850;6.970;2023-02-28T07:29:37;12.70;73.90
60313;DHT22;46158;52.850;6.970;2023-02-28T07:32:03;12.80;73.90
60313;DHT22;46158;52.850;6.970;2023-02-28T07:34:29;12.80;73.80
60313;DHT22;46158;52.850;6.970;2023-02-28T07:36:55;12.80;73.80
60313;DHT22;46158;52.850;6.970;2023-02-28T07:39:21;12.80;73.70
60313;DHT22;46158;52.850;6.970;2023-02-28T07:41:47;12.80;73.70
60313;DHT22;46158;52.850;6.970;2023-02-28T07:44:16;12.80;73.40
60313;DHT22;46158;52.850;6.970;2023-02-28T07:46:41;12.80;73.60
60313;DHT22;46158;52.850;6.970;2023-02-28T07:49:07;12.80;73.60
60313;DHT22;46158;52.850;6.970;2023-02-28T07:51:33;12.80;73.60
60313;DHT22;46158;52.850;6.970;2023-02-28T07:53:59;12.80;73.70
60313;DHT22;46158;52.850;6.970;2023-02-28T07:56:24;12.80;73.70
60313;DHT22;46158;52.850;6.970;2023-02-28T07:58:50;12.80;73.80
60313;DHT22;46158;52.850;6.970;2023-02-28T08:01:16;12.80;73.60
60313;DHT22;46158;52.850;6.970;2023-02-28T08:03:42;12.80;73.70
60313;DHT22;46158;52.850;6.970;2023-02-28T08:06:14;12.80;73.70
60313;DHT22;46158;52.850;6.970;2023-02-28T08:08:41;12.80;73.70
60313;DHT22;46158;52.850;6.970;2023-02-28T08:11:06;12.80;73.80
60313;DHT22;46158;52.850;6.970;2023-02-28T08:13:35;12.80;73.70
60313;DHT22;46158;52.850;6.970;2023-02-28T08:16:04;12.90;73.80
60313;DHT22;46158;52.850;6.970;2023-02-28T08:18:31;12.80;73.70
60313;DHT22;46158;52.850;6.970;2023-02-28T08:20:57;12.80;73.60
60313;DHT22;46158;52.850;6.970;2023-02-28T08:23:24;12.80;73.60
60313;DHT22;46158;52.850;6.970;2023-02-28T08:25:53;12.90;73.70
60313;DHT22;46158;52.850;6.970;2023-02-28T08:28:20;12.90;73.70
60313;DHT22;46158;52.850;6.970;2023-02-28T08:30:45;12.90;73.60
60313;DHT22;46158;52.850;6.970;2023-02-28T08:33:11;12.90;73.70
60313;DHT22;46158;52.850;6.970;2023-02-28T08:35:37;12.90;73.70
60313;DHT22;46158;52.850;6.970;2023-02-28T08:38:03;12.90;73.70
60313;DHT22;46158;52.850;6.970;2023-02-28T08:40:29;12.90;73.70
60313;DHT22;46158;52.850;6.970;2023-02-28T08:42:58;12.90;73.80
60313;DHT22;46158;52.850;6.970;2023-02-28T08:45:25;12.90;73.80
60313;DHT22;46158;52.850;6.970;2023-02-28T08:47:50;12.90;73.80
60313;DHT22;46158;52.850;6.970;2023-02-28T08:50:18;12.90;73.80
60313;DHT22;46158;52.850;6.970;2023-02-28T08:52:44;12.90;73.80
60313;DHT22;46158;52.850;6.970;2023-02-28T08:55:10;12.90;73.80
60313;DHT22;46158;52.850;6.970;2023-02-28T08:57:35;12.90;73.80
60313;DHT22;46158;52.850;6.970;2023-02-28T09:00:01;12.90;73.80
60313;DHT22;46158;52.850;6.970;2023-02-28T09:02:30;12.90;73.90
60313;DHT22;46158;52.850;6.970;2023-02-28T09:04:56;12.90;73.90
60313;DHT22;46158;52.850;6.970;2023-02-28T09:07:21;12.90;73.90
60313;DHT22;46158;52.850;6.970;2023-02-28T09:09:47;12.90;74.00
60313;DHT22;46158;52.850;6.970;2023-02-28T09:12:26;12.90;74.00
60313;DHT22;46158;52.850;6.970;2023-02-28T09:14:53;12.90;74.00
60313;DHT22;46158;52.850;6.970;2023-02-28T09:17:20;12.90;74.00
60313;DHT22;46158;52.850;6.970;2023-02-28T09:19:47;12.90;74.10
60313;DHT22;46158;52.850;6.970;2023-02-28T09:22:13;12.90;74.10
60313;DHT22;46158;52.850;6.970;2023-02-28T09:24:39;12.90;74.10
60313;DHT22;46158;52.850;6.970;2023-02-28T09:27:04;12.90;74.10
60313;DHT22;46158;52.850;6.970;2023-02-28T09:29:33;12.90;74.10
60313;DHT22;46158;52.850;6.970;2023-02-28T09:31:59;12.90;74.20
60313;DHT22;46158;52.850;6.970;2023-02-28T09:34:25;12.90;74.20
60313;DHT22;46158;52.850;6.970;2023-02-28T09:36:51;12.90;74.20
60313;DHT22;46158;52.850;6.970;2023-02-28T09:39:20;12.90;74.30
60313;DHT22;46158;52.850;6.970;2023-02-28T09:41:47;12.90;74.30
60313;DHT22;46158;52.850;6.970;2023-02-28T09:44:17;12.90;74.30
60313;DHT22;46158;52.850;6.970;2023-02-28T09:46:49;12.90;74.30
60313;DHT22;46158;52.850;6.970;2023-02-28T09:49:25;12.90;74.30
60313;DHT22;46158;52.850;6.970;2023-02-28T09:52:03;12.90;74.30
60313;DHT22;46158;52.850;6.970;2023-02-28T09:54:30;12.90;74.30
60313;DHT22;46158;52.850;6.970;2023-02-28T09:57:00;13.00;74.40
60313;DHT22;46158;52.850;6.970;2023-02-28T10:07:07;13.00;74.50
60313;DHT22;46158;52.850;6.970;2023-02-28T10:09:42;12.90;74.40
60313;DHT22;46158;52.850;6.970;2023-02-28T10:12:10;13.00;74.50
60313;DHT22;46158;52.850;6.970;2023-02-28T10:14:36;12.90;74.40
60313;DHT22;46158;52.850;6.970;2023-02-28T10:17:12;12.90;74.40
60313;DHT22;46158;52.850;6.970;2023-02-28T10:19:44;13.00;74.40
60313;DHT22;46158;52.850;6.970;2023-02-28T10:24:55;12.90;74.30
60313;DHT22;46158;52.850;6.970;2023-02-28T10:27:33;13.00;74.20
60313;DHT22;46158;52.850;6.970;2023-02-28T10:30:00;12.90;74.10
60313;DHT22;46158;52.850;6.970;2023-02-28T10:32:30;13.00;74.20
60313;DHT22;46158;52.850;6.970;2023-02-28T10:34:58;13.00;74.20
60313;DHT22;46158;52.850;6.970;2023-02-28T10:37:25;13.00;74.20
60313;DHT22;46158;52.850;6.970;2023-02-28T10:39:51;13.00;74.20
60313;DHT22;46158;52.850;6.970;2023-02-28T10:42:27;13.00;74.20
60313;DHT22;46158;52.850;6.970;2023-02-28T10:45:09;13.00;74.20
60313;DHT22;46158;52.850;6.970;2023-02-28T10:47:37;13.00;74.10
60313;DHT22;46158;52.850;6.970;2023-02-28T10:50:23;13.00;74.20
60313;DHT22;46158;52.850;6.970;2023-02-28T10:52:52;13.00;74.80
60313;DHT22;46158;52.850;6.970;2023-02-28T10:55:22;13.00;74.10
60313;DHT22;46158;52.850;6.970;2023-02-28T10:57:50;12.90;74.10
60313;DHT22;46158;52.850;6.970;2023-02-28T11:00:17;13.00;74.10
60313;DHT22;46158;52.850;6.970;2023-02-28T11:02:44;13.00;74.10
60313;DHT22;46158;52.850;6.970;2023-02-28T11:05:31;13.00;74.10
60313;DHT22;46158;52.850;6.970;2023-02-28T11:08:14;12.90;74.00
60313;DHT22;46158;52.850;6.970;2023-02-28T11:10:43;12.90;74.00
60313;DHT22;46158;52.850;6.970;2023-02-28T11:13:16;12.90;74.00
60313;DHT22;46158;52.850;6.970;2023-02-28T11:15:45;12.90;74.00
60313;DHT22;46158;52.850;6.970;2023-02-28T11:18:19;13.00;74.00
60313;DHT22;46158;52.850;6.970;2023-02-28T11:20:50;12.90;74.00
60313;DHT22;46158;52.850;6.970;2023-02-28T11:23:16;12.90;74.00
60313;DHT22;46158;52.850;6.970;2023-02-28T11:25:46;12.90;74.00
60313;DHT22;46158;52.850;6.970;2023-02-28T11:28:23;12.90;74.00
60313;DHT22;46158;52.850;6.970;2023-02-28T11:31:05;12.90;73.90
60313;DHT22;46158;52.850;6.970;2023-02-28T11:33:32;13.00;73.80
60313;DHT22;46158;52.850;6.970;2023-02-28T11:36:27;13.00;73.70
60313;DHT22;46158;52.850;6.970;2023-02-28T11:38:51;12.90;73.70
60313;DHT22;46158;52.850;6.970;2023-02-28T11:46:33;12.90;73.50
60313;DHT22;46158;52.850;6.970;2023-02-28T11:51:28;12.90;73.70
60313;DHT22;46158;52.850;6.970;2023-02-28T11:54:16;12.90;73.70
60313;DHT22;46158;52.850;6.970;2023-02-28T11:56:47;12.90;73.70
60313;DHT22;46158;52.850;6.970;2023-02-28T11:59:19;12.90;73.80
60313;DHT22;46158;52.850;6.970;2023-02-28T12:06:50;12.90;73.80
60313;DHT22;46158;52.850;6.970;2023-02-28T12:12:07;12.90;73.80
60313;DHT22;46158;52.850;6.970;2023-02-28T12:19:51;12.90;74.10
60313;DHT22;46158;52.850;6.970;2023-02-28T12:22:23;12.90;74.10
60313;DHT22;46158;52.850;6.970;2023-02-28T12:27:49;12.90;74.20
60313;DHT22;46158;52.850;6.970;2023-02-28T12:32:41;12.90;74.20
60313;DHT22;46158;52.850;6.970;2023-02-28T12:35:12;12.90;74.30
60313;DHT22;46158;52.850;6.970;2023-02-28T12:37:47;12.90;74.30
60313;DHT22;46158;52.850;6.970;2023-02-28T12:40:22;12.90;74.30
60313;DHT22;46158;52.850;6.970;2023-02-28T12:42:58;12.90;74.30
60313;DHT22;46158;52.850;6.970;2023-02-28T12:45:27;13.00;74.40
60313;DHT22;46158;52.850;6.970;2023-02-28T12:48:01;12.90;74.20
60313;DHT22;46158;52.850;6.970;2023-02-28T12:50:29;13.00;74.30
60313;DHT22;46158;52.850;6.970;2023-02-28T12:55:53;13.00;74.30
60313;DHT22;46158;52.850;6.970;2023-02-28T13:06:14;13.00;74.30
60313;DHT22;46158;52.850;6.970;2023-02-28T13:08:47;13.00;74.30
60313;DHT22;46158;52.850;6.970;2023-02-28T13:11:28;13.00;74.30
60313;DHT22;46158;52.850;6.970;2023-02-28T13:14:02;13.00;74.30
60313;DHT22;46158;52.850;6.970;2023-02-28T13:16:47;13.00;74.30
60313;DHT22;46158;52.850;6.970;2023-02-28T13:19:16;13.00;74.20
60313;DHT22;46158;52.850;6.970;2023-02-28T13:21:43;13.00;74.30
60313;DHT22;46158;52.850;6.970;2023-02-28T13:24:10;13.00;74.20
60313;DHT22;46158;52.850;6.970;2023-02-28T13:29:02;13.00;74.20
60313;DHT22;46158;52.850;6.970;2023-02-28T13:31:30;13.00;74.20
60313;DHT22;46158;52.850;6.970;2023-02-28T13:38:51;13.10;74.10
60313;DHT22;46158;52.850;6.970;2023-02-28T13:44:06;13.10;74.20
60313;DHT22;46158;52.850;6.970;2023-02-28T13:46:32;13.10;74.20
60313;DHT22;46158;52.850;6.970;2023-02-28T13:49:20;13.10;74.00
60313;DHT22;46158;52.850;6.970;2023-02-28T13:51:53;13.10;73.90
60313;DHT22;46158;52.850;6.970;2023-02-28T13:57:06;13.10;73.90
60313;DHT22;46158;52.850;6.970;2023-02-28T13:59:43;13.10;73.90
60313;DHT22;46158;52.850;6.970;2023-02-28T14:02:25;13.10;73.90
60313;DHT22;46158;52.850;6.970;2023-02-28T14:04:57;13.10;73.90
60313;DHT22;46158;52.850;6.970;2023-02-28T14:07:30;13.10;73.90
60313;DHT22;46158;52.850;6.970;2023-02-28T14:09:59;13.10;73.90
60313;DHT22;46158;52.850;6.970;2023-02-28T14:15:39;13.10;73.80
60313;DHT22;46158;52.850;6.970;2023-02-28T14:18:40;13.10;73.80
60313;DHT22;46158;52.850;6.970;2023-02-28T14:21:02;13.10;73.70
60313;DHT22;46158;52.850;6.970;2023-02-28T14:23:35;13.10;73.60
60313;DHT22;46158;52.850;6.970;2023-02-28T14:26:16;13.10;73.50
60313;DHT22;46158;52.850;6.970;2023-02-28T14:36:19;13.20;73.30
60313;DHT22;46158;52.850;6.970;2023-02-28T14:41:47;13.10;73.20
60313;DHT22;46158;52.850;6.970;2023-02-28T14:44:39;13.20;73.20
60313;DHT22;46158;52.850;6.970;2023-02-28T14:47:01;13.20;73.10
60313;DHT22;46158;52.850;6.970;2023-02-28T14:49:32;13.20;73.30
60313;DHT22;46158;52.850;6.970;2023-02-28T14:52:07;13.20;73.30
60313;DHT22;46158;52.850;6.970;2023-02-28T14:54:38;13.10;73.30
60313;DHT22;46158;52.850;6.970;2023-02-28T14:57:04;13.10;73.40
60313;DHT22;46158;52.850;6.970;2023-02-28T14:59:32;13.10;73.40
60313;DHT22;46158;52.850;6.970;2023-02-28T15:02:15;13.10;73.50
60313;DHT22;46158;52.850;6.970;2023-02-28T15:04:43;13.10;73.50
60313;DHT22;46158;52.850;6.970;2023-02-28T15:07:17;13.10;73.60
60313;DHT22;46158;52.850;6.970;2023-02-28T15:09:43;13.10;73.60
60313;DHT22;46158;52.850;6.970;2023-02-28T15:12:11;13.10;73.60
60313;DHT22;46158;52.850;6.970;2023-02-28T15:14:39;13.10;73.70
60313;DHT22;46158;52.850;6.970;2023-02-28T15:17:08;13.10;73.60
60313;DHT22;46158;52.850;6.970;2023-02-28T15:19:37;13.10;73.70
60313;DHT22;46158;52.850;6.970;2023-02-28T15:22:06;13.10;73.60
60313;DHT22;46158;52.850;6.970;2023-02-28T15:27:04;13.10;73.60
60313;DHT22;46158;52.850;6.970;2023-02-28T15:29:33;13.10;73.60
60313;DHT22;46158;52.850;6.970;2023-02-28T15:32:00;13.10;73.70
60313;DHT22;46158;52.850;6.970;2023-02-28T15:34:28;13.10;73.60
60313;DHT22;46158;52.850;6.970;2023-02-28T15:36:54;13.10;73.60
60313;DHT22;46158;52.850;6.970;2023-02-28T15:39:21;13.10;73.60
60313;DHT22;46158;52.850;6.970;2023-02-28T15:42:01;13.10;73.60
60313;DHT22;46158;52.850;6.970;2023-02-28T15:44:34;13.10;73.50
60313;DHT22;46158;52.850;6.970;2023-02-28T15:47:02;13.10;73.60
60313;DHT22;46158;52.850;6.970;2023-02-28T15:49:29;13.20;73.80
60313;DHT22;46158;52.850;6.970;2023-02-28T15:51:57;13.20;73.80
60313;DHT22;46158;52.850;6.970;2023-02-28T15:54:27;13.20;73.70
60313;DHT22;46158;52.850;6.970;2023-02-28T15:56:53;13.20;73.80
60313;DHT22;46158;52.850;6.970;2023-02-28T15:59:21;13.20;73.70
60313;DHT22;46158;52.850;6.970;2023-02-28T16:04:32;13.20;73.70
60313;DHT22;46158;52.850;6.970;2023-02-28T16:09:23;13.20;73.70
60313;DHT22;46158;52.850;6.970;2023-02-28T16:11:51;13.20;73.70
60313;DHT22;46158;52.850;6.970;2023-02-28T16:14:18;13.20;73.70
60313;DHT22;46158;52.850;6.970;2023-02-28T16:16:46;13.20;73.70
60313;DHT22;46158;52.850;6.970;2023-02-28T16:19:13;13.20;73.70
60313;DHT22;46158;52.850;6.970;2023-02-28T16:21:39;13.20;73.70
60313;DHT22;46158;52.850;6.970;2023-02-28T16:24:05;13.20;73.70
60313;DHT22;46158;52.850;6.970;2023-02-28T16:26:30;13.20;73.70
60313;DHT22;46158;52.850;6.970;2023-02-28T16:29:00;13.20;73.70
60313;DHT22;46158;52.850;6.970;2023-02-28T16:31:27;13.20;73.70
60313;DHT22;46158;52.850;6.970;2023-02-28T16:34:04;13.20;73.70
60313;DHT22;46158;52.850;6.970;2023-02-28T16:36:31;13.20;73.70
60313;DHT22;46158;52.850;6.970;2023-02-28T16:38:56;13.20;73.70
60313;DHT22;46158;52.850;6.970;2023-02-28T16:41:24;13.20;73.70
60313;DHT22;46158;52.850;6.970;2023-02-28T16:43:52;13.20;73.80
60313;DHT22;46158;52.850;6.970;2023-02-28T16:46:19;13.20;73.80
60313;DHT22;46158;52.850;6.970;2023-02-28T16:48:45;13.20;74.60
60313;DHT22;46158;52.850;6.970;2023-02-28T16:51:12;13.20;74.00
60313;DHT22;46158;52.850;6.970;2023-02-28T16:53:38;13.20;74.00
60313;DHT22;46158;52.850;6.970;2023-02-28T16:56:03;13.20;74.10
60313;DHT22;46158;52.850;6.970;2023-02-28T16:58:30;13.20;74.10
60313;DHT22;46158;52.850;6.970;2023-02-28T17:00:56;13.20;74.20
60313;DHT22;46158;52.850;6.970;2023-02-28T17:03:23;13.20;74.20
60313;DHT22;46158;52.850;6.970;2023-02-28T17:05:48;13.20;74.30
60313;DHT22;46158;52.850;6.970;2023-02-28T17:08:14;13.20;74.30
60313;DHT22;46158;52.850;6.970;2023-02-28T17:10:39;13.20;74.40
60313;DHT22;46158;52.850;6.970;2023-02-28T17:13:05;13.20;74.30
60313;DHT22;46158;52.850;6.970;2023-02-28T17:15:33;13.10;74.30
60313;DHT22;46158;52.850;6.970;2023-02-28T17:17:58;13.20;74.50
60313;DHT22;46158;52.850;6.970;2023-02-28T17:20:24;13.20;74.40
60313;DHT22;46158;52.850;6.970;2023-02-28T17:22:54;13.20;74.40
60313;DHT22;46158;52.850;6.970;2023-02-28T17:25:21;13.20;74.40
60313;DHT22;46158;52.850;6.970;2023-02-28T17:27:47;13.10;74.40
60313;DHT22;46158;52.850;6.970;2023-02-28T17:32:39;13.20;74.60
60313;DHT22;46158;52.850;6.970;2023-02-28T17:35:04;13.20;74.60
60313;DHT22;46158;52.850;6.970;2023-02-28T17:37:30;13.20;74.60
60313;DHT22;46158;52.850;6.970;2023-02-28T17:39:56;13.10;74.60